Time;durP1;ratioP1;P1;durP2;ratioP2;P2;SDS_P1;SDS_P2;PMS_P1;PMS_P2;Temp;Humidity;BMP_temperature;BMP_pressure;BME280_temperature;BME280_humidity;BME280_pressure;Samples;Min_cycle;Max_cycle;Signal;HPM_P1;HPM_P2
2023/02/07 00:00:48;;;;;;;;;;;;;;;;;;5030316;28;20498;-65
2023/02/07 00:03:13;;;;;;;;;;;;;;;;;;5030214;28;20231;-66
2023/02/07 00:05:39;;;;;;;;;;;;;;;;;;5032244;28;20096;-65
2023/02/07 00:08:04;;;;;;;;;;;;;;;;;;5027383;28;19927;-65
2023/02/07 00:10:29;;;;;;;;;;;;;;;;;;5030923;28;20291;-65
2023/02/07 00:12:54;;;;;;;;;;;;;;;;;;5029128;28;20556;-64
2023/02/07 00:15:23;;;;;;;;;;;;;;;;;;5032546;28;19917;-65
2023/02/07 00:17:48;;;;;;;;;;;;;;;;;;5033415;28;19959;-65
2023/02/07 00:20:13;;;;;;;;;;;;;;;;;;5016785;28;19999;-66
2023/02/07 00:22:39;;;;;;;;;;;;;;;;;;5031287;28;20507;-66
2023/02/07 00:25:04;;;;;;;;;;;;;;;;;;5031729;28;19921;-66
2023/02/07 00:27:29;;;;;;;;;;;;;;;;;;5033240;28;19917;-66
2023/02/07 00:29:57;;;;;;;;;;;;;;;;;;5035292;28;19932;-66
2023/02/07 00:32:22;;;;;;;;;;;;;;;;;;5036306;28;20746;-66
2023/02/07 00:34:49;;;;;;;;;;;;;;;;;;5036547;28;20299;-66
2023/02/07 00:37:16;;;;;;;;;;;;;;;;;;5020695;28;20146;-66
2023/02/07 00:39:44;;;;;;;;;;;;;;;;;;5037546;28;20162;-66
2023/02/07 00:42:09;;;;;;;;;;;;;;;;;;5034779;28;20050;-66
2023/02/07 00:44:37;;;;;;;;;;;;;;;;;;5024993;28;20035;-66
2023/02/07 00:47:02;;;;;;;;;;;;;;;;;;5021825;28;20565;-66
2023/02/07 00:49:31;;;;;;;;;;;;;;;;;;5036572;28;19927;-66
2023/02/07 00:52:02;;;;;;;;;;;;;;;;;;5023026;28;19924;-66
2023/02/07 00:54:27;;;;;;;;;;;;;;;;;;5035324;28;20180;-65
2023/02/07 00:56:52;;;;;;;;;;;;;;;;;;5024355;28;20037;-66
2023/02/07 00:59:21;;;;;;;;;;;;;;;;;;5035408;28;19995;-66
2023/02/07 01:01:46;;;;;;;;;;;;;;;;;;5035941;28;20505;-66
2023/02/07 01:04:11;;;;;;;;;;;;;;;;;;5025748;28;19917;-66
2023/02/07 01:06:39;;;;;;;;;;;;;;;;;;5032920;28;19920;-66
2023/02/07 01:09:04;;;;;;;;;;;;;;;;;;5036749;28;20287;-66
2023/02/07 01:11:30;;;;;;;;;;;;;;;;;;5021873;28;21709;-66
2023/02/07 01:14:00;;;;;;;;;;;;;;;;;;5020749;28;19921;-66
2023/02/07 01:16:28;;;;;;;;;;;;;;;;;;5031550;28;20023;-66
2023/02/07 01:18:53;;;;;;;;;;;;;;;;;;5034344;28;19932;-66
2023/02/07 01:21:22;;;;;;;;;;;;;;;;;;5035848;28;19967;-66
2023/02/07 01:23:47;;;;;;;;;;;;;;;;;;5024404;28;20004;-66
2023/02/07 01:26:12;;;;;;;;;;;;;;;;;;5048431;28;19920;-66
2023/02/07 01:28:38;;;;;;;;;;;;;;;;;;5036796;28;19921;-66
2023/02/07 01:31:05;;;;;;;;;;;;;;;;;;5034380;28;19956;-64
2023/02/07 01:33:33;;;;;;;;;;;;;;;;;;5021666;28;20427;-66
2023/02/07 01:35:58;;;;;;;;;;;;;;;;;;5033988;28;20659;-66
2023/02/07 01:38:24;;;;;;;;;;;;;;;;;;5023138;28;19999;-65
2023/02/07 01:40:52;;;;;;;;;;;;;;;;;;5035871;28;20713;-65
2023/02/07 01:43:17;;;;;;;;;;;;;;;;;;5035933;28;19921;-65
2023/02/07 01:45:42;;;;;;;;;;;;;;;;;;5024888;28;19939;-66
2023/02/07 01:48:08;;;;;;;;;;;;;;;;;;5034191;28;20382;-65
2023/02/07 01:50:33;;;;;;;;;;;;;;;;;;5034866;28;19999;-64
2023/02/07 01:52:58;;;;;;;;;;;;;;;;;;5037171;28;20299;-65
2023/02/07 01:55:23;;;;;;;;;;;;;;;;;;5036785;28;20019;-65
2023/02/07 01:57:52;;;;;;;;;;;;;;;;;;5031316;28;19960;-64
2023/02/07 02:00:18;;;;;;;;;;;;;;;;;;5033214;28;19920;-65
2023/02/07 02:02:43;;;;;;;;;;;;;;;;;;5034901;28;19921;-65
2023/02/07 02:05:10;;;;;;;;;;;;;;;;;;5033140;28;19964;-65
2023/02/07 02:07:36;;;;;;;;;;;;;;;;;;5035250;28;20004;-65
2023/02/07 02:10:03;;;;;;;;;;;;;;;;;;5033482;28;19917;-65
2023/02/07 02:12:29;;;;;;;;;;;;;;;;;;5033005;28;19923;-65
2023/02/07 02:14:54;;;;;;;;;;;;;;;;;;5033777;28;19921;-65
2023/02/07 02:17:28;;;;;;;;;;;;;;;;;;5022504;28;19921;-64
2023/02/07 02:19:53;;;;;;;;;;;;;;;;;;5034001;28;20202;-65
2023/02/07 02:22:18;;;;;;;;;;;;;;;;;;5033412;28;19921;-64
2023/02/07 02:24:44;;;;;;;;;;;;;;;;;;5035816;28;19959;-65
2023/02/07 02:27:09;;;;;;;;;;;;;;;;;;5034699;28;19925;-65
2023/02/07 02:29:36;;;;;;;;;;;;;;;;;;5020762;28;19963;-65
2023/02/07 02:32:06;;;;;;;;;;;;;;;;;;5018095;28;19931;-64
2023/02/07 02:34:32;;;;;;;;;;;;;;;;;;5033651;28;19928;-64
2023/02/07 02:36:59;;;;;;;;;;;;;;;;;;5030892;28;21552;-64
2023/02/07 02:39:31;;;;;;;;;;;;;;;;;;5031816;28;19966;-64
2023/02/07 02:41:59;;;;;;;;;;;;;;;;;;5033086;28;20046;-65
2023/02/07 02:44:27;;;;;;;;;;;;;;;;;;5037677;28;19924;-65
2023/02/07 02:46:52;;;;;;;;;;;;;;;;;;5032299;28;19924;-64
2023/02/07 02:49:22;;;;;;;;;;;;;;;;;;5035136;28;20007;-64
2023/02/07 02:51:53;;;;;;;;;;;;;;;;;;5023261;28;20012;-64
2023/02/07 02:54:18;;;;;;;;;;;;;;;;;;5023295;28;19983;-65
2023/02/07 02:56:46;;;;;;;;;;;;;;;;;;5033680;28;19917;-64
2023/02/07 02:59:16;;;;;;;;;;;;;;;;;;5019108;28;19969;-65
2023/02/07 03:01:42;;;;;;;;;;;;;;;;;;5034521;28;20241;-64
2023/02/07 03:04:09;;;;;;;;;;;;;;;;;;5020795;28;19928;-65
2023/02/07 03:06:35;;;;;;;;;;;;;;;;;;5030338;28;19974;-64
2023/02/07 03:09:00;;;;;;;;;;;;;;;;;;5030475;28;19993;-65
2023/02/07 03:11:28;;;;;;;;;;;;;;;;;;5030890;28;19974;-65
2023/02/07 03:13:55;;;;;;;;;;;;;;;;;;5033987;28;19916;-64
2023/02/07 03:16:21;;;;;;;;;;;;;;;;;;5029551;28;19978;-64
2023/02/07 03:18:48;;;;;;;;;;;;;;;;;;5032562;28;20388;-65
2023/02/07 03:21:15;;;;;;;;;;;;;;;;;;5019061;28;20004;-65
2023/02/07 03:23:40;;;;;;;;;;;;;;;;;;5030417;28;19917;-64
2023/02/07 03:26:08;;;;;;;;;;;;;;;;;;5031088;28;19925;-65
2023/02/07 03:28:36;;;;;;;;;;;;;;;;;;5034905;28;19920;-65
2023/02/07 03:31:01;;;;;;;;;;;;;;;;;;5021696;28;19963;-65
2023/02/07 03:33:27;;;;;;;;;;;;;;;;;;5035271;28;20060;-65
2023/02/07 03:35:53;;;;;;;;;;;;;;;;;;5031209;28;19917;-65
2023/02/07 03:38:20;;;;;;;;;;;;;;;;;;5031616;28;19921;-66
2023/02/07 03:40:46;;;;;;;;;;;;;;;;;;5034304;28;20553;-65
2023/02/07 03:43:14;;;;;;;;;;;;;;;;;;5032741;28;20003;-64
2023/02/07 03:45:39;;;;;;;;;;;;;;;;;;5033619;28;20554;-65
2023/02/07 03:48:04;;;;;;;;;;;;;;;;;;5029659;28;19925;-65
2023/02/07 03:50:36;;;;;;;;;;;;;;;;;;5028862;28;19931;-64
2023/02/07 03:53:01;;;;;;;;;;;;;;;;;;5018911;28;19921;-64
2023/02/07 03:55:29;;;;;;;;;;;;;;;;;;5034576;28;20471;-65
2023/02/07 03:57:54;;;;;;;;;;;;;;;;;;5017867;28;19920;-65
2023/02/07 04:00:22;;;;;;;;;;;;;;;;;;5022068;28;20005;-65
2023/02/07 04:02:50;;;;;;;;;;;;;;;;;;5031934;28;19921;-65
2023/02/07 04:05:17;;;;;;;;;;;;;;;;;;5029603;28;19991;-66
2023/02/07 04:07:43;;;;;;;;;;;;;;;;;;5033450;28;19935;-66
2023/02/07 04:10:10;;;;;;;;;;;;;;;;;;5028801;28;20372;-66
2023/02/07 04:12:41;;;;;;;;;;;;;;;;;;5020291;28;20410;-66
2023/02/07 04:15:09;;;;;;;;;;;;;;;;;;5030803;28;20391;-65
2023/02/07 04:17:36;;;;;;;;;;;;;;;;;;5029635;28;20020;-64
2023/02/07 04:20:04;;;;;;;;;;;;;;;;;;5032817;28;20290;-64
2023/02/07 04:22:32;;;;;;;;;;;;;;;;;;5032530;28;19930;-65
2023/02/07 04:25:00;;;;;;;;;;;;;;;;;;5018188;28;19924;-64
2023/02/07 04:27:28;;;;;;;;;;;;;;;;;;5019510;28;19917;-65
2023/02/07 04:29:56;;;;;;;;;;;;;;;;;;5017255;28;19943;-65
2023/02/07 04:32:24;;;;;;;;;;;;;;;;;;5028177;28;19921;-65
2023/02/07 04:34:54;;;;;;;;;;;;;;;;;;5034457;28;19937;-66
2023/02/07 04:40:37;;;;;;;;;;;;;;;;;;5030894;28;20424;-66
2023/02/07 04:43:04;;;;;;;;;;;;;;;;;;5032250;28;20265;-65
2023/02/07 04:45:32;;;;;;;;;;;;;;;;;;5031248;28;19972;-65
2023/02/07 04:47:57;;;;;;;;;;;;;;;;;;5028184;28;20384;-65
2023/02/07 04:50:28;;;;;;;;;;;;;;;;;;5028434;28;19917;-64
2023/02/07 04:52:56;;;;;;;;;;;;;;;;;;5028225;28;19923;-67
2023/02/07 04:55:21;;;;;;;;;;;;;;;;;;5021392;28;20380;-67
2023/02/07 04:57:46;;;;;;;;;;;;;;;;;;5037288;28;20328;-65
2023/02/07 05:00:12;;;;;;;;;;;;;;;;;;5029624;28;20067;-66
2023/02/07 05:02:39;;;;;;;;;;;;;;;;;;5015532;28;20496;-66
2023/02/07 05:05:08;;;;;;;;;;;;;;;;;;5029875;28;19920;-66
2023/02/07 05:07:35;;;;;;;;;;;;;;;;;;5029503;28;19921;-67
2023/02/07 05:10:03;;;;;;;;;;;;;;;;;;5019753;28;20255;-67
2023/02/07 05:18:31;;;;;;;;;;;;;;;;;;5034449;28;20408;-67
2023/02/07 05:21:10;;;;;;;;;;;;;;;;;;5030803;28;20027;-67
2023/02/07 05:23:37;;;;;;;;;;;;;;;;;;5033877;28;20512;-67
2023/02/07 05:26:02;;;;;;;;;;;;;;;;;;5035324;28;20460;-68
2023/02/07 05:28:28;;;;;;;;;;;;;;;;;;5035157;28;20380;-68
2023/02/07 05:30:56;;;;;;;;;;;;;;;;;;5035576;28;19982;-68
2023/02/07 05:33:21;;;;;;;;;;;;;;;;;;5036579;28;20375;-69
2023/02/07 05:35:46;;;;;;;;;;;;;;;;;;5035493;28;20526;-68
2023/02/07 05:38:14;;;;;;;;;;;;;;;;;;5022067;28;20052;-69
2023/02/07 05:40:39;;;;;;;;;;;;;;;;;;5035141;28;19948;-69
2023/02/07 05:43:07;;;;;;;;;;;;;;;;;;5034418;28;20012;-68
2023/02/07 05:45:35;;;;;;;;;;;;;;;;;;5030851;28;19947;-69
2023/02/07 05:48:00;;;;;;;;;;;;;;;;;;5023961;28;20053;-69
2023/02/07 05:50:28;;;;;;;;;;;;;;;;;;5034964;28;20761;-69
2023/02/07 05:52:58;;;;;;;;;;;;;;;;;;5022656;28;20043;-70
2023/02/07 05:55:27;;;;;;;;;;;;;;;;;;5033863;28;20117;-70
2023/02/07 05:57:54;;;;;;;;;;;;;;;;;;5021987;28;19921;-70
2023/02/07 06:00:22;;;;;;;;;;;;;;;;;;5022039;28;19959;-69
2023/02/07 06:02:50;;;;;;;;;;;;;;;;;;5024767;28;19917;-70
2023/02/07 06:05:15;;;;;;;;;;;;;;;;;;5033816;28;19920;-70
2023/02/07 06:07:41;;;;;;;;;;;;;;;;;;5032883;28;19924;-70
2023/02/07 06:10:06;;;;;;;;;;;;;;;;;;5035835;28;19924;-70
2023/02/07 06:12:37;;;;;;;;;;;;;;;;;;5022429;28;20455;-71
2023/02/07 06:15:05;;;;;;;;;;;;;;;;;;5021814;28;20387;-71
2023/02/07 06:17:30;;;;;;;;;;;;;;;;;;5031301;28;19920;-71
2023/02/07 06:19:58;;;;;;;;;;;;;;;;;;5032571;28;20704;-71
2023/02/07 06:22:23;;;;;;;;;;;;;;;;;;5031068;28;20031;-71
2023/02/07 06:24:52;;;;;;;;;;;;;;;;;;5034989;28;19927;-70
2023/02/07 06:30:37;;;;;;;;;;;;;;;;;;5031868;28;19928;-71
2023/02/07 06:33:05;;;;;;;;;;;;;;;;;;5033347;28;19971;-71
2023/02/07 06:35:35;;;;;;;;;;;;;;;;;;5033631;28;20280;-72
2023/02/07 06:38:00;;;;;;;;;;;;;;;;;;5033384;28;20363;-73
2023/02/07 06:40:25;;;;;;;;;;;;;;;;;;5034580;28;19939;-73
2023/02/07 06:42:51;;;;;;;;;;;;;;;;;;5041135;28;19917;-75
2023/02/07 06:45:19;;;;;;;;;;;;;;;;;;5034267;28;20362;-73
2023/02/07 06:47:44;;;;;;;;;;;;;;;;;;5023763;28;19925;-73
2023/02/07 06:50:09;;;;;;;;;;;;;;;;;;5022762;28;19938;-73
2023/02/07 06:52:37;;;;;;;;;;;;;;;;;;5034649;28;20126;-73
2023/02/07 06:55:02;;;;;;;;;;;;;;;;;;5030835;28;20311;-73
2023/02/07 06:57:28;;;;;;;;;;;;;;;;;;5022217;28;20060;-74
2023/02/07 06:59:56;;;;;;;;;;;;;;;;;;5019290;28;20020;-74
2023/02/07 07:02:21;;;;;;;;;;;;;;;;;;5037366;28;19921;-74
2023/02/07 07:04:49;;;;;;;;;;;;;;;;;;5021166;28;20331;-75
2023/02/07 07:07:17;;;;;;;;;;;;;;;;;;5032276;28;19920;-75
2023/02/07 07:09:45;;;;;;;;;;;;;;;;;;5023907;28;20065;-75
2023/02/07 07:12:10;;;;;;;;;;;;;;;;;;5021982;28;19920;-76
2023/02/07 07:14:35;;;;;;;;;;;;;;;;;;5023170;28;20013;-76
2023/02/07 07:17:06;;;;;;;;;;;;;;;;;;5034647;28;20265;-77
2023/02/07 07:22:24;;;;;;;;;;;;;;;;;;5035061;28;19924;-76
2023/02/07 07:24:52;;;;;;;;;;;;;;;;;;5040688;28;20311;-76
2023/02/07 07:27:17;;;;;;;;;;;;;;;;;;5023032;28;20176;-76
2023/02/07 07:29:43;;;;;;;;;;;;;;;;;;5035637;28;20630;-76
2023/02/07 07:32:10;;;;;;;;;;;;;;;;;;5034628;28;21984;-76
2023/02/07 07:34:38;;;;;;;;;;;;;;;;;;5034931;28;19916;-76
2023/02/07 07:37:03;;;;;;;;;;;;;;;;;;5034951;28;19928;-76
2023/02/07 07:39:31;;;;;;;;;;;;;;;;;;5024063;28;19959;-76
2023/02/07 07:41:59;;;;;;;;;;;;;;;;;;5021070;28;20007;-76
2023/02/07 07:44:25;;;;;;;;;;;;;;;;;;5036087;28;19920;-77
2023/02/07 07:46:51;;;;;;;;;;;;;;;;;;5023717;28;19979;-76
2023/02/07 07:49:19;;;;;;;;;;;;;;;;;;5034302;28;19920;-76
2023/02/07 07:51:47;;;;;;;;;;;;;;;;;;5034160;28;19917;-76
2023/02/07 07:54:15;;;;;;;;;;;;;;;;;;5034669;28;19943;-76
2023/02/07 07:56:40;;;;;;;;;;;;;;;;;;5035485;28;19920;-76
2023/02/07 07:59:05;;;;;;;;;;;;;;;;;;5035079;28;20266;-77
2023/02/07 08:01:34;;;;;;;;;;;;;;;;;;5032475;28;21489;-77
2023/02/07 08:03:59;;;;;;;;;;;;;;;;;;5022973;28;19956;-77
2023/02/07 08:06:24;;;;;;;;;;;;;;;;;;5035689;28;19921;-77
2023/02/07 08:08:52;;;;;;;;;;;;;;;;;;5037323;28;19951;-77
2023/02/07 08:11:17;;;;;;;;;;;;;;;;;;5023508;28;19916;-77
2023/02/07 08:13:48;;;;;;;;;;;;;;;;;;5041974;28;20007;-76
2023/02/07 08:16:13;;;;;;;;;;;;;;;;;;5016940;28;21438;-77
2023/02/07 08:18:42;;;;;;;;;;;;;;;;;;5034557;28;19931;-76
2023/02/07 08:21:07;;;;;;;;;;;;;;;;;;5050741;28;19921;-77
2023/02/07 08:23:32;;;;;;;;;;;;;;;;;;5036702;28;19968;-76
2023/02/07 08:25:57;;;;;;;;;;;;;;;;;;5023131;28;20521;-76
2023/02/07 08:28:23;;;;;;;;;;;;;;;;;;5037342;28;20464;-76
2023/02/07 08:30:53;;;;;;;;;;;;;;;;;;5038708;28;20347;-76
2023/02/07 08:33:21;;;;;;;;;;;;;;;;;;5030168;28;19917;-76
2023/02/07 08:35:49;;;;;;;;;;;;;;;;;;5038912;28;19928;-76
2023/02/07 08:38:14;;;;;;;;;;;;;;;;;;5040184;28;19930;-77
2023/02/07 08:40:42;;;;;;;;;;;;;;;;;;5025438;28;20286;-77
2023/02/07 08:43:11;;;;;;;;;;;;;;;;;;5038093;28;20441;-76
2023/02/07 08:45:41;;;;;;;;;;;;;;;;;;5031445;28;20386;-77
2023/02/07 08:48:06;;;;;;;;;;;;;;;;;;5034095;28;19925;-76
2023/02/07 08:50:34;;;;;;;;;;;;;;;;;;5035526;28;19924;-76
2023/02/07 08:53:00;;;;;;;;;;;;;;;;;;5027672;28;19920;-77
2023/02/07 08:55:25;;;;;;;;;;;;;;;;;;5037945;28;19923;-77
2023/02/07 08:57:53;;;;;;;;;;;;;;;;;;5035320;28;19917;-77
2023/02/07 09:00:18;;;;;;;;;;;;;;;;;;5027208;28;21515;-76
2023/02/07 09:02:43;;;;;;;;;;;;;;;;;;5022845;28;19986;-76
2023/02/07 09:05:08;;;;;;;;;;;;;;;;;;5025662;28;19921;-78
2023/02/07 09:07:34;;;;;;;;;;;;;;;;;;5037467;28;19925;-77
2023/02/07 09:10:03;;;;;;;;;;;;;;;;;;5028852;28;19943;-77
2023/02/07 09:12:29;;;;;;;;;;;;;;;;;;5023801;28;20303;-76
2023/02/07 09:14:55;;;;;;;;;;;;;;;;;;5037317;28;19964;-77
2023/02/07 09:17:20;;;;;;;;;;;;;;;;;;5024477;28;19917;-76
2023/02/07 09:19:45;;;;;;;;;;;;;;;;;;5035792;28;20409;-77
2023/02/07 09:22:13;;;;;;;;;;;;;;;;;;5039076;28;20523;-76
2023/02/07 09:24:41;;;;;;;;;;;;;;;;;;5034971;28;20434;-77
2023/02/07 09:27:06;;;;;;;;;;;;;;;;;;5034548;28;19920;-78
2023/02/07 09:29:31;;;;;;;;;;;;;;;;;;5036372;28;19983;-78
2023/02/07 09:31:59;;;;;;;;;;;;;;;;;;5021985;28;20731;-77
2023/02/07 09:34:24;;;;;;;;;;;;;;;;;;5025795;28;19942;-77
2023/02/07 09:36:52;;;;;;;;;;;;;;;;;;5021305;28;20038;-77
2023/02/07 09:39:18;;;;;;;;;;;;;;;;;;5026945;28;19921;-77
2023/02/07 09:41:43;;;;;;;;;;;;;;;;;;5037622;28;19931;-77
2023/02/07 09:44:11;;;;;;;;;;;;;;;;;;5027312;28;20961;-77
2023/02/07 09:46:39;;;;;;;;;;;;;;;;;;5037025;28;19927;-76
2023/02/07 09:49:05;;;;;;;;;;;;;;;;;;5023750;28;20315;-76
2023/02/07 09:51:33;;;;;;;;;;;;;;;;;;5025422;28;20012;-75
2023/02/07 09:53:58;;;;;;;;;;;;;;;;;;5033820;28;20335;-75
2023/02/07 09:56:23;;;;;;;;;;;;;;;;;;5021593;28;20015;-75
2023/02/07 09:58:51;;;;;;;;;;;;;;;;;;5023040;28;19928;-73
2023/02/07 10:01:16;;;;;;;;;;;;;;;;;;5023117;28;19920;-73
2023/02/07 10:03:44;;;;;;;;;;;;;;;;;;5023744;28;21773;-73
2023/02/07 10:06:11;;;;;;;;;;;;;;;;;;5017807;28;20363;-74
2023/02/07 10:08:39;;;;;;;;;;;;;;;;;;5036298;28;19982;-73
2023/02/07 10:11:07;;;;;;;;;;;;;;;;;;5021065;28;19962;-73
2023/02/07 10:13:32;;;;;;;;;;;;;;;;;;5034874;28;19916;-74
2023/02/07 10:16:00;;;;;;;;;;;;;;;;;;5033908;28;20032;-74
2023/02/07 10:18:28;;;;;;;;;;;;;;;;;;5019382;28;19928;-73
2023/02/07 10:20:56;;;;;;;;;;;;;;;;;;5034477;28;20383;-72
2023/02/07 10:23:24;;;;;;;;;;;;;;;;;;5032617;28;19920;-72
2023/02/07 10:25:50;;;;;;;;;;;;;;;;;;5034007;28;20068;-70
2023/02/07 10:28:18;;;;;;;;;;;;;;;;;;5031273;28;19927;-70
2023/02/07 10:30:48;;;;;;;;;;;;;;;;;;5034767;28;20406;-71
2023/02/07 10:33:14;;;;;;;;;;;;;;;;;;5019460;28;20488;-70
2023/02/07 10:35:39;;;;;;;;;;;;;;;;;;5022688;28;19920;-70
2023/02/07 10:38:04;;;;;;;;;;;;;;;;;;5031234;28;20177;-70
2023/02/07 10:40:29;;;;;;;;;;;;;;;;;;5019233;28;19928;-69
2023/02/07 10:42:55;;;;;;;;;;;;;;;;;;5033232;28;19921;-69
2023/02/07 10:45:20;;;;;;;;;;;;;;;;;;5033320;28;20027;-68
2023/02/07 10:47:48;;;;;;;;;;;;;;;;;;5031221;28;19991;-69
2023/02/07 10:50:16;;;;;;;;;;;;;;;;;;5033159;28;19917;-69
2023/02/07 10:52:43;;;;;;;;;;;;;;;;;;5033637;28;20236;-69
2023/02/07 10:55:11;;;;;;;;;;;;;;;;;;5032858;28;19990;-68
2023/02/07 10:57:36;;;;;;;;;;;;;;;;;;5032634;28;19916;-70
2023/02/07 11:00:04;;;;;;;;;;;;;;;;;;5034263;28;19935;-69
2023/02/07 11:02:32;;;;;;;;;;;;;;;;;;5032695;28;20011;-68
2023/02/07 11:04:57;;;;;;;;;;;;;;;;;;5030770;28;20379;-68
2023/02/07 11:07:23;;;;;;;;;;;;;;;;;;5020675;28;20441;-67
2023/02/07 11:09:48;;;;;;;;;;;;;;;;;;5034922;28;19931;-67
2023/02/07 11:12:16;;;;;;;;;;;;;;;;;;5032976;28;20344;-68
2023/02/07 11:14:47;;;;;;;;;;;;;;;;;;5031331;28;19966;-67
2023/02/07 11:17:15;;;;;;;;;;;;;;;;;;5016033;28;20343;-68
2023/02/07 11:19:40;;;;;;;;;;;;;;;;;;5028725;28;19924;-68
2023/02/07 11:22:08;;;;;;;;;;;;;;;;;;5030830;28;19942;-67
2023/02/07 11:24:34;;;;;;;;;;;;;;;;;;5033203;28;20391;-68
2023/02/07 11:27:02;;;;;;;;;;;;;;;;;;5029481;28;19927;-66
2023/02/07 11:29:30;;;;;;;;;;;;;;;;;;5022408;28;19927;-68
2023/02/07 11:31:56;;;;;;;;;;;;;;;;;;5029202;28;20184;-67
2023/02/07 11:34:23;;;;;;;;;;;;;;;;;;5033149;28;19992;-67
2023/02/07 11:36:53;;;;;;;;;;;;;;;;;;5022751;28;20159;-67
2023/02/07 11:39:18;;;;;;;;;;;;;;;;;;5034076;28;19924;-66
2023/02/07 11:41:45;;;;;;;;;;;;;;;;;;5030252;28;20209;-67
2023/02/07 11:44:11;;;;;;;;;;;;;;;;;;5033230;28;20458;-67
2023/02/07 11:46:38;;;;;;;;;;;;;;;;;;5038309;28;19924;-67
2023/02/07 11:49:10;;;;;;;;;;;;;;;;;;5029365;28;19973;-66
2023/02/07 11:51:38;;;;;;;;;;;;;;;;;;5032900;28;19927;-66
2023/02/07 11:54:03;;;;;;;;;;;;;;;;;;5021982;28;21063;-64
2023/02/07 11:56:32;;;;;;;;;;;;;;;;;;5033403;28;19944;-65
2023/02/07 11:59:00;;;;;;;;;;;;;;;;;;5022527;28;20694;-65
2023/02/07 12:01:31;;;;;;;;;;;;;;;;;;5031768;28;20287;-65
2023/02/07 12:03:59;;;;;;;;;;;;;;;;;;5032150;28;19986;-65
2023/02/07 12:06:27;;;;;;;;;;;;;;;;;;5029275;28;20196;-64
2023/02/07 12:08:53;;;;;;;;;;;;;;;;;;5032879;28;20582;-65
2023/02/07 12:11:18;;;;;;;;;;;;;;;;;;5031061;28;19978;-62
2023/02/07 12:13:44;;;;;;;;;;;;;;;;;;5031156;28;19928;-63
2023/02/07 12:16:10;;;;;;;;;;;;;;;;;;5017297;28;19925;-63
2023/02/07 12:18:35;;;;;;;;;;;;;;;;;;5029830;28;19925;-63
2023/02/07 12:21:00;;;;;;;;;;;;;;;;;;5017092;28;20805;-62
2023/02/07 12:23:25;;;;;;;;;;;;;;;;;;5033513;28;19987;-63
2023/02/07 12:25:56;;;;;;;;;;;;;;;;;;5027516;28;19921;-65
2023/02/07 12:28:21;;;;;;;;;;;;;;;;;;5024779;28;20035;-63
2023/02/07 12:30:47;;;;;;;;;;;;;;;;;;5037396;28;21486;-63
2023/02/07 12:33:12;;;;;;;;;;;;;;;;;;5020258;28;19944;-64
2023/02/07 12:35:37;;;;;;;;;;;;;;;;;;5034155;28;20347;-63
2023/02/07 12:38:03;;;;;;;;;;;;;;;;;;5037874;28;19921;-63
2023/02/07 12:40:28;;;;;;;;;;;;;;;;;;5037228;28;19982;-63
2023/02/07 12:42:57;;;;;;;;;;;;;;;;;;5022030;28;19978;-63
2023/02/07 12:45:22;;;;;;;;;;;;;;;;;;5037282;28;20039;-63
2023/02/07 12:47:52;;;;;;;;;;;;;;;;;;5034943;28;20344;-64
2023/02/07 12:50:20;;;;;;;;;;;;;;;;;;5049511;28;19981;-64
2023/02/07 12:52:45;;;;;;;;;;;;;;;;;;5034203;28;19928;-64
2023/02/07 12:55:11;;;;;;;;;;;;;;;;;;5025278;28;19917;-64
2023/02/07 12:57:39;;;;;;;;;;;;;;;;;;5037594;28;19928;-64
2023/02/07 13:00:07;;;;;;;;;;;;;;;;;;5035768;28;19952;-63
2023/02/07 13:02:34;;;;;;;;;;;;;;;;;;5036239;28;19928;-64
2023/02/07 13:05:00;;;;;;;;;;;;;;;;;;5020786;28;20321;-65
2023/02/07 13:07:27;;;;;;;;;;;;;;;;;;5035848;28;20019;-63
2023/02/07 13:09:53;;;;;;;;;;;;;;;;;;5036092;28;19992;-63
2023/02/07 13:12:21;;;;;;;;;;;;;;;;;;5033413;28;19921;-64
2023/02/07 13:14:48;;;;;;;;;;;;;;;;;;5036121;28;19917;-65
2023/02/07 13:17:14;;;;;;;;;;;;;;;;;;5035999;28;19927;-64
2023/02/07 13:19:42;;;;;;;;;;;;;;;;;;5034751;28;19924;-65
2023/02/07 13:22:11;;;;;;;;;;;;;;;;;;5032680;28;19928;-64
2023/02/07 13:24:38;;;;;;;;;;;;;;;;;;5024645;28;20171;-64
2023/02/07 13:27:04;;;;;;;;;;;;;;;;;;5021048;28;19920;-63
2023/02/07 13:29:29;;;;;;;;;;;;;;;;;;5034454;28;19916;-64
2023/02/07 13:31:57;;;;;;;;;;;;;;;;;;5023719;28;20746;-65
2023/02/07 13:34:25;;;;;;;;;;;;;;;;;;5034454;28;20243;-64
2023/02/07 13:36:53;;;;;;;;;;;;;;;;;;5036455;28;19920;-64
2023/02/07 13:39:18;;;;;;;;;;;;;;;;;;5034185;28;19947;-65
2023/02/07 13:41:43;;;;;;;;;;;;;;;;;;5037615;28;20497;-64
2023/02/07 13:44:12;;;;;;;;;;;;;;;;;;5032598;28;20405;-65
2023/02/07 13:46:37;;;;;;;;;;;;;;;;;;5020214;28;20116;-66
2023/02/07 13:49:02;;;;;;;;;;;;;;;;;;5035188;28;19973;-64
2023/02/07 13:51:28;;;;;;;;;;;;;;;;;;5032070;28;19917;-64
2023/02/07 13:53:54;;;;;;;;;;;;;;;;;;5018814;28;19966;-64
2023/02/07 14:02:04;;;;;;;;;;;;;;;;;;5003366;28;19921;-64
2023/02/07 14:04:30;;;;;;;;;;;;;;;;;;5012927;28;20490;-64
2023/02/07 14:06:55;;;;;;;;;;;;;;;;;;5032201;28;20212;-64
2023/02/07 14:09:21;;;;;;;;;;;;;;;;;;5024900;28;19920;-61
2023/02/07 14:11:46;;;;;;;;;;;;;;;;;;5034580;28;19916;-64
2023/02/07 14:14:12;;;;;;;;;;;;;;;;;;5023108;28;20094;-64
2023/02/07 14:16:37;;;;;;;;;;;;;;;;;;5022028;28;20477;-64
2023/02/07 14:19:02;;;;;;;;;;;;;;;;;;5034810;28;19924;-64
2023/02/07 14:21:28;;;;;;;;;;;;;;;;;;5034058;28;20156;-64
2023/02/07 14:23:53;;;;;;;;;;;;;;;;;;5022047;28;19916;-64
2023/02/07 14:26:19;;;;;;;;;;;;;;;;;;5019533;28;19921;-64
2023/02/07 14:28:45;;;;;;;;;;;;;;;;;;5034393;28;19920;-64
2023/02/07 14:31:10;;;;;;;;;;;;;;;;;;5019422;28;19940;-65
2023/02/07 14:33:36;;;;;;;;;;;;;;;;;;5031059;28;20067;-64
2023/02/07 14:36:02;;;;;;;;;;;;;;;;;;5033465;28;20273;-64
2023/02/07 14:38:28;;;;;;;;;;;;;;;;;;5033811;28;19917;-65
2023/02/07 14:40:56;;;;;;;;;;;;;;;;;;5034641;28;19922;-65
2023/02/07 14:43:23;;;;;;;;;;;;;;;;;;5031050;28;20371;-65
2023/02/07 14:45:51;;;;;;;;;;;;;;;;;;5031280;28;19917;-64
2023/02/07 14:48:17;;;;;;;;;;;;;;;;;;5033359;28;19947;-64
2023/02/07 14:50:42;;;;;;;;;;;;;;;;;;5039282;28;20272;-64
2023/02/07 14:53:07;;;;;;;;;;;;;;;;;;5032948;28;20039;-65
2023/02/07 14:55:33;;;;;;;;;;;;;;;;;;5030153;28;20501;-65
2023/02/07 14:57:58;;;;;;;;;;;;;;;;;;5034935;28;21455;-65
2023/02/07 15:00:27;;;;;;;;;;;;;;;;;;5031980;28;20182;-65
2023/02/07 15:02:55;;;;;;;;;;;;;;;;;;5032899;28;19916;-64
2023/02/07 15:05:20;;;;;;;;;;;;;;;;;;5020549;28;19928;-65
2023/02/07 15:07:46;;;;;;;;;;;;;;;;;;5023441;28;19952;-64
2023/02/07 15:10:11;;;;;;;;;;;;;;;;;;5035530;28;20560;-65
2023/02/07 15:12:38;;;;;;;;;;;;;;;;;;5034026;28;19928;-65
2023/02/07 15:15:06;;;;;;;;;;;;;;;;;;5033116;28;19921;-64
2023/02/07 15:17:32;;;;;;;;;;;;;;;;;;5017842;28;19920;-65
2023/02/07 15:19:57;;;;;;;;;;;;;;;;;;5033858;28;20002;-65
2023/02/07 15:22:25;;;;;;;;;;;;;;;;;;5021789;28;20005;-64
2023/02/07 15:24:51;;;;;;;;;;;;;;;;;;5018890;28;19994;-65
2023/02/07 15:27:16;;;;;;;;;;;;;;;;;;5032670;28;20343;-64
2023/02/07 15:29:41;;;;;;;;;;;;;;;;;;5021965;28;20255;-65
2023/02/07 15:32:06;;;;;;;;;;;;;;;;;;5032800;28;19928;-64
2023/02/07 15:34:33;;;;;;;;;;;;;;;;;;5023177;28;19916;-65
2023/02/07 15:36:59;;;;;;;;;;;;;;;;;;5022137;28;20274;-64
2023/02/07 15:39:25;;;;;;;;;;;;;;;;;;5033825;28;19924;-65
2023/02/07 15:41:51;;;;;;;;;;;;;;;;;;5020369;28;21582;-65
2023/02/07 15:44:17;;;;;;;;;;;;;;;;;;5033231;28;19959;-64
2023/02/07 15:46:42;;;;;;;;;;;;;;;;;;5029872;28;20885;-63
2023/02/07 15:49:07;;;;;;;;;;;;;;;;;;5023308;28;19916;-65
2023/02/07 15:51:35;;;;;;;;;;;;;;;;;;5019849;28;20058;-65
2023/02/07 15:54:01;;;;;;;;;;;;;;;;;;5033802;28;19920;-64
2023/02/07 15:56:28;;;;;;;;;;;;;;;;;;5031714;28;20383;-64
2023/02/07 15:58:54;;;;;;;;;;;;;;;;;;5032773;28;19936;-64
2023/02/07 16:01:19;;;;;;;;;;;;;;;;;;5032471;28;20705;-64
2023/02/07 16:03:44;;;;;;;;;;;;;;;;;;5020198;28;20053;-64
2023/02/07 16:06:09;;;;;;;;;;;;;;;;;;5021961;28;20058;-64
2023/02/07 16:08:35;;;;;;;;;;;;;;;;;;5032758;28;19961;-65
2023/02/07 16:11:00;;;;;;;;;;;;;;;;;;5033984;28;20416;-65
2023/02/07 16:13:25;;;;;;;;;;;;;;;;;;5035132;28;19920;-64
2023/02/07 16:15:51;;;;;;;;;;;;;;;;;;5029523;28;19917;-65
2023/02/07 16:18:16;;;;;;;;;;;;;;;;;;5032852;28;19960;-64
2023/02/07 16:20:41;;;;;;;;;;;;;;;;;;5032072;28;19929;-65
2023/02/07 16:23:08;;;;;;;;;;;;;;;;;;5016280;28;20079;-65
2023/02/07 16:25:33;;;;;;;;;;;;;;;;;;5046168;28;19956;-65
2023/02/07 16:27:58;;;;;;;;;;;;;;;;;;5035235;28;20019;-65
2023/02/07 16:30:24;;;;;;;;;;;;;;;;;;5016486;28;20007;-64
2023/02/07 16:32:49;;;;;;;;;;;;;;;;;;5033574;28;19923;-64
2023/02/07 16:35:14;;;;;;;;;;;;;;;;;;5032488;28;19921;-65
2023/02/07 16:37:45;;;;;;;;;;;;;;;;;;5020256;28;20193;-65
2023/02/07 16:40:10;;;;;;;;;;;;;;;;;;5031558;28;19920;-64
2023/02/07 16:42:38;;;;;;;;;;;;;;;;;;5034159;28;19956;-65
2023/02/07 16:45:04;;;;;;;;;;;;;;;;;;5022540;28;20050;-65
2023/02/07 16:47:29;;;;;;;;;;;;;;;;;;5029867;28;21378;-65
2023/02/07 16:49:56;;;;;;;;;;;;;;;;;;5034043;28;19920;-64
2023/02/07 16:52:25;;;;;;;;;;;;;;;;;;5016514;28;20122;-64
2023/02/07 16:54:53;;;;;;;;;;;;;;;;;;5021133;28;19920;-64
2023/02/07 16:57:18;;;;;;;;;;;;;;;;;;5046206;28;19917;-64
2023/02/07 16:59:46;;;;;;;;;;;;;;;;;;5034131;28;20578;-63
2023/02/07 17:02:11;;;;;;;;;;;;;;;;;;5030600;28;19921;-64